This is the latest recevied weather packets stored in our database for station/object IW1EYZ-3. If no packets are shown the sender has not sent any weather packets the latest 10 day(s).
| Time | Temp. | Humidity | Pressure | Rain* | Wind** | Luminosity | Snow |
|---|---|---|---|---|---|---|---|
| 1777470820 | 30.56° C | 24% | 1016.5 hPa | - | - | - | - |
| 1777469620 | 28.33° C | 28% | 1016.9 hPa | - | - | - | - |
| 1777468420 | 30.56° C | 23% | 1016.8 hPa | - | - | - | - |
| 1777467219 | 30.56° C | 24% | 1016.8 hPa | - | - | - | - |
| 1777466019 | 31.11° C | 23% | 1016.8 hPa | - | - | - | - |
| 1777464819 | 31.11° C | 23% | 1016.8 hPa | - | - | - | - |
| 1777463619 | 30° C | 25% | 1016.8 hPa | - | - | - | - |
| 1777462418 | 31.11° C | 22% | 1016.9 hPa | - | - | - | - |
| 1777461218 | 28.89° C | 25% | 1017.2 hPa | - | - | - | - |
| 1777460018 | 26.67° C | 28% | 1017.2 hPa | - | - | - | - |
| 1777458817 | 26.11° C | 29% | 1017.2 hPa | - | - | - | - |
| 1777457617 | 25° C | 31% | 1017.4 hPa | - | - | - | - |
| 1777456417 | 24.44° C | 31% | 1017.4 hPa | - | - | - | - |
| 1777455216 | 23.33° C | 35% | 1017.6 hPa | - | - | - | - |
| 1777454016 | 23.33° C | 33% | 1017.5 hPa | - | - | - | - |
| 1777452816 | 21.67° C | 39% | 1017.6 hPa | - | - | - | - |
| 1777450415 | 18.33° C | 47% | 1017.6 hPa | - | - | - | - |
| 1777449215 | 18.33° C | 46% | 1017.5 hPa | - | - | - | - |
| 1777448014 | 17.22° C | 50% | 1017.5 hPa | - | - | - | - |
| 1777446814 | 17.22° C | 48% | 1017.4 hPa | - | - | - | - |
| 1777445614 | 17.22° C | 47% | 1017.3 hPa | - | - | - | - |
| 1777444414 | 16.67° C | 43% | 1017.1 hPa | - | - | - | - |
| 1777443213 | 16.11° C | 49% | 1017 hPa | - | - | - | - |
| 1777442013 | 15.56° C | 52% | 1017 hPa | - | - | - | - |
| 1777440813 | 15.56° C | 53% | 1017.1 hPa | - | - | - | - |
* Rain since midnight (hover to see other rain measurements)
** Current wind speed in m/s (hover to see current wind gust speed)